sensor_id;sensor_type;location;lat;lon;timestamp;P1;durP1;ratioP1;P2;durP2;ratioP2
9898;SDS011;4988;49.238;6.698;2022-11-04T00:01:19;10.40;;;3.50;;
9898;SDS011;4988;49.238;6.698;2022-11-04T00:03:44;6.83;;;2.83;;
9898;SDS011;4988;49.238;6.698;2022-11-04T00:06:10;8.87;;;3.00;;
9898;SDS011;4988;49.238;6.698;2022-11-04T00:08:35;11.80;;;3.80;;
9898;SDS011;4988;49.238;6.698;2022-11-04T00:11:01;7.60;;;3.20;;
9898;SDS011;4988;49.238;6.698;2022-11-04T00:13:45;6.97;;;3.10;;
9898;SDS011;4988;49.238;6.698;2022-11-04T00:16:11;9.23;;;3.80;;
9898;SDS011;4988;49.238;6.698;2022-11-04T00:18:56;8.87;;;3.10;;
9898;SDS011;4988;49.238;6.698;2022-11-04T00:21:21;6.27;;;3.20;;
9898;SDS011;4988;49.238;6.698;2022-11-04T00:24:05;4.67;;;2.80;;
9898;SDS011;4988;49.238;6.698;2022-11-04T00:26:51;7.13;;;3.50;;
9898;SDS011;4988;49.238;6.698;2022-11-04T00:29:35;5.97;;;2.87;;
9898;SDS011;4988;49.238;6.698;2022-11-04T00:32:00;5.93;;;2.73;;
9898;SDS011;4988;49.238;6.698;2022-11-04T00:34:44;8.10;;;2.80;;
9898;SDS011;4988;49.238;6.698;2022-11-04T00:37:09;6.57;;;2.90;;
9898;SDS011;4988;49.238;6.698;2022-11-04T00:39:35;5.33;;;2.60;;
9898;SDS011;4988;49.238;6.698;2022-11-04T00:42:00;9.17;;;2.27;;
9898;SDS011;4988;49.238;6.698;2022-11-04T00:44:25;5.60;;;2.90;;
9898;SDS011;4988;49.238;6.698;2022-11-04T00:46:51;10.67;;;3.37;;
9898;SDS011;4988;49.238;6.698;2022-11-04T00:49:16;16.37;;;4.67;;
9898;SDS011;4988;49.238;6.698;2022-11-04T00:51:41;8.73;;;3.23;;
9898;SDS011;4988;49.238;6.698;2022-11-04T00:54:07;10.03;;;3.50;;
9898;SDS011;4988;49.238;6.698;2022-11-04T00:56:32;23.43;;;7.13;;
9898;SDS011;4988;49.238;6.698;2022-11-04T00:59:01;11.90;;;3.77;;
9898;SDS011;4988;49.238;6.698;2022-11-04T01:01:27;11.17;;;4.27;;
9898;SDS011;4988;49.238;6.698;2022-11-04T01:03:53;7.67;;;2.60;;
9898;SDS011;4988;49.238;6.698;2022-11-04T01:06:20;11.50;;;3.83;;
9898;SDS011;4988;49.238;6.698;2022-11-04T01:08:46;9.33;;;3.87;;
9898;SDS011;4988;49.238;6.698;2022-11-04T01:11:12;8.50;;;3.20;;
9898;SDS011;4988;49.238;6.698;2022-11-04T01:13:39;7.77;;;2.90;;
9898;SDS011;4988;49.238;6.698;2022-11-04T01:16:06;11.47;;;3.00;;
9898;SDS011;4988;49.238;6.698;2022-11-04T01:18:33;5.43;;;2.93;;
9898;SDS011;4988;49.238;6.698;2022-11-04T01:21:00;11.63;;;3.00;;
9898;SDS011;4988;49.238;6.698;2022-11-04T01:23:26;6.87;;;3.10;;
9898;SDS011;4988;49.238;6.698;2022-11-04T01:25:51;10.67;;;3.07;;
9898;SDS011;4988;49.238;6.698;2022-11-04T01:28:16;9.47;;;2.70;;
9898;SDS011;4988;49.238;6.698;2022-11-04T01:30:42;6.90;;;2.90;;
9898;SDS011;4988;49.238;6.698;2022-11-04T01:33:07;10.43;;;3.10;;
9898;SDS011;4988;49.238;6.698;2022-11-04T01:35:32;4.83;;;2.60;;
9898;SDS011;4988;49.238;6.698;2022-11-04T01:37:58;10.00;;;2.60;;
9898;SDS011;4988;49.238;6.698;2022-11-04T01:40:23;10.60;;;3.53;;
9898;SDS011;4988;49.238;6.698;2022-11-04T01:42:49;8.17;;;2.90;;
9898;SDS011;4988;49.238;6.698;2022-11-04T01:45:16;9.47;;;3.00;;
9898;SDS011;4988;49.238;6.698;2022-11-04T01:47:58;9.50;;;2.90;;
9898;SDS011;4988;49.238;6.698;2022-11-04T01:50:28;9.90;;;3.20;;
9898;SDS011;4988;49.238;6.698;2022-11-04T01:53:03;7.93;;;2.73;;
9898;SDS011;4988;49.238;6.698;2022-11-04T01:55:40;7.53;;;2.37;;
9898;SDS011;4988;49.238;6.698;2022-11-04T01:58:11;7.47;;;2.90;;
9898;SDS011;4988;49.238;6.698;2022-11-04T02:00:41;10.17;;;2.47;;
9898;SDS011;4988;49.238;6.698;2022-11-04T02:03:08;7.43;;;2.77;;
9898;SDS011;4988;49.238;6.698;2022-11-04T02:05:42;7.47;;;2.93;;
9898;SDS011;4988;49.238;6.698;2022-11-04T02:08:09;8.17;;;2.90;;
9898;SDS011;4988;49.238;6.698;2022-11-04T02:10:36;10.50;;;3.60;;
9898;SDS011;4988;49.238;6.698;2022-11-04T02:13:05;6.70;;;3.20;;
9898;SDS011;4988;49.238;6.698;2022-11-04T02:43:08;6.37;;;3.00;;
9898;SDS011;4988;49.238;6.698;2022-11-04T02:45:46;5.53;;;2.40;;
9898;SDS011;4988;49.238;6.698;2022-11-04T02:50:54;6.67;;;2.17;;
9898;SDS011;4988;49.238;6.698;2022-11-04T02:55:54;8.93;;;2.90;;
9898;SDS011;4988;49.238;6.698;2022-11-04T02:58:24;6.67;;;2.60;;
9898;SDS011;4988;49.238;6.698;2022-11-04T03:01:02;11.17;;;2.63;;
9898;SDS011;4988;49.238;6.698;2022-11-04T03:03:32;4.60;;;2.90;;
9898;SDS011;4988;49.238;6.698;2022-11-04T03:06:02;4.53;;;2.50;;
9898;SDS011;4988;49.238;6.698;2022-11-04T03:08:31;10.17;;;3.10;;
9898;SDS011;4988;49.238;6.698;2022-11-04T03:11:01;7.40;;;3.37;;
9898;SDS011;4988;49.238;6.698;2022-11-04T03:13:44;5.17;;;3.30;;
9898;SDS011;4988;49.238;6.698;2022-11-04T03:16:19;13.23;;;3.50;;
9898;SDS011;4988;49.238;6.698;2022-11-04T03:18:56;6.30;;;3.00;;
9898;SDS011;4988;49.238;6.698;2022-11-04T03:21:26;7.80;;;3.07;;
9898;SDS011;4988;49.238;6.698;2022-11-04T03:23:55;9.70;;;3.33;;
9898;SDS011;4988;49.238;6.698;2022-11-04T03:34:24;6.10;;;2.70;;
9898;SDS011;4988;49.238;6.698;2022-11-04T03:36:50;7.60;;;2.90;;
9898;SDS011;4988;49.238;6.698;2022-11-04T03:39:16;9.63;;;3.47;;
9898;SDS011;4988;49.238;6.698;2022-11-04T03:41:42;11.53;;;3.70;;
9898;SDS011;4988;49.238;6.698;2022-11-04T03:44:13;11.53;;;4.20;;
9898;SDS011;4988;49.238;6.698;2022-11-04T03:46:39;13.87;;;3.50;;
9898;SDS011;4988;49.238;6.698;2022-11-04T03:49:04;9.97;;;3.43;;
9898;SDS011;4988;49.238;6.698;2022-11-04T03:51:32;6.87;;;3.37;;
9898;SDS011;4988;49.238;6.698;2022-11-04T03:53:57;9.30;;;3.30;;
9898;SDS011;4988;49.238;6.698;2022-11-04T04:01:26;6.47;;;3.60;;
9898;SDS011;4988;49.238;6.698;2022-11-04T04:04:15;7.87;;;3.10;;
9898;SDS011;4988;49.238;6.698;2022-11-04T04:06:52;9.87;;;3.30;;
9898;SDS011;4988;49.238;6.698;2022-11-04T04:09:29;5.83;;;3.10;;
9898;SDS011;4988;49.238;6.698;2022-11-04T04:12:11;5.97;;;3.27;;
9898;SDS011;4988;49.238;6.698;2022-11-04T04:14:48;10.20;;;3.57;;
9898;SDS011;4988;49.238;6.698;2022-11-04T04:20:06;10.40;;;2.67;;
9898;SDS011;4988;49.238;6.698;2022-11-04T04:22:39;7.43;;;2.93;;
9898;SDS011;4988;49.238;6.698;2022-11-04T04:25:09;9.00;;;3.07;;
9898;SDS011;4988;49.238;6.698;2022-11-04T04:27:55;8.23;;;3.00;;
9898;SDS011;4988;49.238;6.698;2022-11-04T04:30:22;9.27;;;3.27;;
9898;SDS011;4988;49.238;6.698;2022-11-04T04:32:49;8.03;;;2.90;;
9898;SDS011;4988;49.238;6.698;2022-11-04T04:35:19;9.07;;;3.33;;
9898;SDS011;4988;49.238;6.698;2022-11-04T04:38:12;8.63;;;2.90;;
9898;SDS011;4988;49.238;6.698;2022-11-04T04:41:16;11.43;;;3.30;;
9898;SDS011;4988;49.238;6.698;2022-11-04T04:44:29;7.70;;;3.40;;
9898;SDS011;4988;49.238;6.698;2022-11-04T04:47:14;6.70;;;3.57;;
9898;SDS011;4988;49.238;6.698;2022-11-04T04:49:53;4.50;;;2.83;;
9898;SDS011;4988;49.238;6.698;2022-11-04T04:52:21;7.87;;;3.50;;
9898;SDS011;4988;49.238;6.698;2022-11-04T04:54:48;7.47;;;3.10;;
9898;SDS011;4988;49.238;6.698;2022-11-04T04:57:13;11.07;;;3.50;;
9898;SDS011;4988;49.238;6.698;2022-11-04T04:59:39;6.17;;;2.53;;
9898;SDS011;4988;49.238;6.698;2022-11-04T05:02:04;3.93;;;2.90;;
9898;SDS011;4988;49.238;6.698;2022-11-04T05:04:30;6.80;;;3.23;;
9898;SDS011;4988;49.238;6.698;2022-11-04T05:06:55;6.97;;;3.00;;
9898;SDS011;4988;49.238;6.698;2022-11-04T05:09:20;5.93;;;2.87;;
9898;SDS011;4988;49.238;6.698;2022-11-04T05:11:45;6.30;;;2.70;;
9898;SDS011;4988;49.238;6.698;2022-11-04T05:14:11;10.57;;;3.20;;
9898;SDS011;4988;49.238;6.698;2022-11-04T05:16:36;6.70;;;3.17;;
9898;SDS011;4988;49.238;6.698;2022-11-04T05:19:01;7.40;;;2.70;;
9898;SDS011;4988;49.238;6.698;2022-11-04T05:21:27;6.13;;;2.63;;
9898;SDS011;4988;49.238;6.698;2022-11-04T05:23:52;8.10;;;2.73;;
9898;SDS011;4988;49.238;6.698;2022-11-04T05:26:17;5.40;;;2.60;;
9898;SDS011;4988;49.238;6.698;2022-11-04T05:28:43;6.63;;;2.90;;
9898;SDS011;4988;49.238;6.698;2022-11-04T05:31:08;6.07;;;3.07;;
9898;SDS011;4988;49.238;6.698;2022-11-04T05:33:33;6.00;;;2.60;;
9898;SDS011;4988;49.238;6.698;2022-11-04T05:36:05;4.20;;;2.40;;
9898;SDS011;4988;49.238;6.698;2022-11-04T05:38:35;6.23;;;3.00;;
9898;SDS011;4988;49.238;6.698;2022-11-04T05:41:01;6.50;;;2.60;;
9898;SDS011;4988;49.238;6.698;2022-11-04T05:43:26;7.07;;;2.93;;
9898;SDS011;4988;49.238;6.698;2022-11-04T05:45:51;5.73;;;3.00;;
9898;SDS011;4988;49.238;6.698;2022-11-04T05:48:17;5.27;;;3.10;;
9898;SDS011;4988;49.238;6.698;2022-11-04T05:50:42;4.93;;;2.87;;
9898;SDS011;4988;49.238;6.698;2022-11-04T05:53:07;6.37;;;3.00;;
9898;SDS011;4988;49.238;6.698;2022-11-04T05:55:33;6.37;;;2.80;;
9898;SDS011;4988;49.238;6.698;2022-11-04T05:57:58;13.63;;;3.03;;
9898;SDS011;4988;49.238;6.698;2022-11-04T06:00:24;7.60;;;3.07;;
9898;SDS011;4988;49.238;6.698;2022-11-04T06:02:51;5.73;;;2.90;;
9898;SDS011;4988;49.238;6.698;2022-11-04T06:05:16;4.00;;;2.50;;
9898;SDS011;4988;49.238;6.698;2022-11-04T06:07:41;11.10;;;2.83;;
9898;SDS011;4988;49.238;6.698;2022-11-04T06:10:07;7.47;;;2.60;;
9898;SDS011;4988;49.238;6.698;2022-11-04T06:12:32;4.13;;;2.80;;
9898;SDS011;4988;49.238;6.698;2022-11-04T06:14:58;8.20;;;2.83;;
9898;SDS011;4988;49.238;6.698;2022-11-04T06:17:23;10.53;;;3.13;;
9898;SDS011;4988;49.238;6.698;2022-11-04T06:19:49;6.10;;;2.90;;
9898;SDS011;4988;49.238;6.698;2022-11-04T06:22:15;9.10;;;3.10;;
9898;SDS011;4988;49.238;6.698;2022-11-04T06:24:41;11.67;;;3.30;;
9898;SDS011;4988;49.238;6.698;2022-11-04T06:27:07;6.80;;;3.27;;
9898;SDS011;4988;49.238;6.698;2022-11-04T06:29:34;5.27;;;3.43;;
9898;SDS011;4988;49.238;6.698;2022-11-04T06:32:08;5.93;;;4.27;;
9898;SDS011;4988;49.238;6.698;2022-11-04T06:34:35;8.37;;;4.00;;
9898;SDS011;4988;49.238;6.698;2022-11-04T06:37:01;9.23;;;4.30;;
9898;SDS011;4988;49.238;6.698;2022-11-04T06:39:26;11.17;;;4.90;;
9898;SDS011;4988;49.238;6.698;2022-11-04T06:41:51;9.80;;;4.40;;
9898;SDS011;4988;49.238;6.698;2022-11-04T06:44:17;11.80;;;4.60;;
9898;SDS011;4988;49.238;6.698;2022-11-04T06:46:42;12.90;;;5.07;;
9898;SDS011;4988;49.238;6.698;2022-11-04T06:49:12;12.07;;;4.10;;
9898;SDS011;4988;49.238;6.698;2022-11-04T06:51:38;8.20;;;4.50;;
9898;SDS011;4988;49.238;6.698;2022-11-04T06:54:04;12.47;;;4.47;;
9898;SDS011;4988;49.238;6.698;2022-11-04T06:56:30;12.63;;;5.60;;
9898;SDS011;4988;49.238;6.698;2022-11-04T06:58:55;8.20;;;4.57;;
9898;SDS011;4988;49.238;6.698;2022-11-04T07:01:22;11.13;;;5.27;;
9898;SDS011;4988;49.238;6.698;2022-11-04T07:04:00;13.27;;;5.40;;
9898;SDS011;4988;49.238;6.698;2022-11-04T07:06:27;14.37;;;5.03;;
9898;SDS011;4988;49.238;6.698;2022-11-04T07:08:56;12.77;;;5.00;;
9898;SDS011;4988;49.238;6.698;2022-11-04T07:11:23;11.07;;;4.40;;
9898;SDS011;4988;49.238;6.698;2022-11-04T07:13:50;11.27;;;4.97;;
9898;SDS011;4988;49.238;6.698;2022-11-04T07:16:16;11.53;;;5.77;;
9898;SDS011;4988;49.238;6.698;2022-11-04T07:18:43;9.67;;;4.60;;
9898;SDS011;4988;49.238;6.698;2022-11-04T07:21:08;11.53;;;4.53;;
9898;SDS011;4988;49.238;6.698;2022-11-04T07:23:34;10.67;;;5.63;;
9898;SDS011;4988;49.238;6.698;2022-11-04T07:26:00;10.87;;;5.50;;
9898;SDS011;4988;49.238;6.698;2022-11-04T07:28:26;10.87;;;4.70;;
9898;SDS011;4988;49.238;6.698;2022-11-04T07:30:53;10.07;;;4.50;;
9898;SDS011;4988;49.238;6.698;2022-11-04T07:33:23;12.20;;;4.03;;
9898;SDS011;4988;49.238;6.698;2022-11-04T07:35:49;8.77;;;3.87;;
9898;SDS011;4988;49.238;6.698;2022-11-04T07:38:14;8.03;;;3.80;;
9898;SDS011;4988;49.238;6.698;2022-11-04T07:40:39;14.03;;;3.60;;
9898;SDS011;4988;49.238;6.698;2022-11-04T07:43:05;7.00;;;3.67;;
9898;SDS011;4988;49.238;6.698;2022-11-04T07:45:30;9.67;;;3.90;;
9898;SDS011;4988;49.238;6.698;2022-11-04T07:47:56;7.40;;;3.20;;
9898;SDS011;4988;49.238;6.698;2022-11-04T07:50:22;7.23;;;3.27;;
9898;SDS011;4988;49.238;6.698;2022-11-04T07:52:47;7.57;;;4.17;;
9898;SDS011;4988;49.238;6.698;2022-11-04T07:55:14;11.87;;;3.57;;
9898;SDS011;4988;49.238;6.698;2022-11-04T07:57:42;9.60;;;3.77;;
9898;SDS011;4988;49.238;6.698;2022-11-04T08:00:11;7.03;;;3.90;;
9898;SDS011;4988;49.238;6.698;2022-11-04T08:02:39;7.67;;;3.53;;
9898;SDS011;4988;49.238;6.698;2022-11-04T08:05:05;14.00;;;3.67;;
9898;SDS011;4988;49.238;6.698;2022-11-04T08:07:31;11.13;;;3.67;;
9898;SDS011;4988;49.238;6.698;2022-11-04T08:09:56;5.77;;;3.20;;
9898;SDS011;4988;49.238;6.698;2022-11-04T08:12:22;5.90;;;2.87;;
9898;SDS011;4988;49.238;6.698;2022-11-04T08:14:49;8.07;;;3.00;;
9898;SDS011;4988;49.238;6.698;2022-11-04T08:17:18;9.37;;;3.30;;
9898;SDS011;4988;49.238;6.698;2022-11-04T08:19:47;5.47;;;3.03;;
9898;SDS011;4988;49.238;6.698;2022-11-04T08:22:13;8.63;;;2.50;;
9898;SDS011;4988;49.238;6.698;2022-11-04T08:24:40;8.90;;;2.40;;
9898;SDS011;4988;49.238;6.698;2022-11-04T08:27:07;7.33;;;2.83;;
9898;SDS011;4988;49.238;6.698;2022-11-04T08:29:34;7.37;;;2.80;;
9898;SDS011;4988;49.238;6.698;2022-11-04T08:31:59;5.90;;;2.93;;
9898;SDS011;4988;49.238;6.698;2022-11-04T08:34:25;10.67;;;3.00;;
9898;SDS011;4988;49.238;6.698;2022-11-04T08:36:50;7.33;;;2.90;;
9898;SDS011;4988;49.238;6.698;2022-11-04T08:39:17;6.63;;;3.20;;
9898;SDS011;4988;49.238;6.698;2022-11-04T08:41:43;6.13;;;2.80;;
9898;SDS011;4988;49.238;6.698;2022-11-04T08:44:09;7.17;;;3.27;;
9898;SDS011;4988;49.238;6.698;2022-11-04T08:46:37;5.37;;;3.00;;
9898;SDS011;4988;49.238;6.698;2022-11-04T08:49:03;5.20;;;2.27;;
9898;SDS011;4988;49.238;6.698;2022-11-04T08:51:30;9.33;;;3.00;;
9898;SDS011;4988;49.238;6.698;2022-11-04T08:53:57;4.83;;;2.80;;
9898;SDS011;4988;49.238;6.698;2022-11-04T08:56:28;7.03;;;2.60;;
9898;SDS011;4988;49.238;6.698;2022-11-04T08:58:55;6.23;;;3.00;;
9898;SDS011;4988;49.238;6.698;2022-11-04T09:01:26;9.53;;;3.10;;
9898;SDS011;4988;49.238;6.698;2022-11-04T09:03:52;8.70;;;2.50;;
9898;SDS011;4988;49.238;6.698;2022-11-04T09:06:19;8.23;;;3.03;;
9898;SDS011;4988;49.238;6.698;2022-11-04T09:08:47;10.27;;;3.40;;
9898;SDS011;4988;49.238;6.698;2022-11-04T09:11:14;8.63;;;4.20;;
9898;SDS011;4988;49.238;6.698;2022-11-04T09:13:40;15.63;;;6.10;;
9898;SDS011;4988;49.238;6.698;2022-11-04T09:16:06;17.57;;;6.03;;
9898;SDS011;4988;49.238;6.698;2022-11-04T09:18:33;9.90;;;3.63;;
9898;SDS011;4988;49.238;6.698;2022-11-04T09:21:02;11.27;;;3.77;;
9898;SDS011;4988;49.238;6.698;2022-11-04T09:23:29;11.00;;;4.03;;
9898;SDS011;4988;49.238;6.698;2022-11-04T09:25:55;9.00;;;2.77;;
9898;SDS011;4988;49.238;6.698;2022-11-04T09:28:22;9.57;;;3.20;;
9898;SDS011;4988;49.238;6.698;2022-11-04T09:30:48;10.40;;;2.87;;
9898;SDS011;4988;49.238;6.698;2022-11-04T09:33:15;5.77;;;3.10;;
9898;SDS011;4988;49.238;6.698;2022-11-04T09:35:40;7.73;;;2.60;;
9898;SDS011;4988;49.238;6.698;2022-11-04T09:38:06;6.93;;;3.37;;
9898;SDS011;4988;49.238;6.698;2022-11-04T09:40:32;7.00;;;2.80;;
9898;SDS011;4988;49.238;6.698;2022-11-04T09:45:31;9.93;;;2.83;;
9898;SDS011;4988;49.238;6.698;2022-11-04T09:47:59;9.10;;;2.80;;
9898;SDS011;4988;49.238;6.698;2022-11-04T09:50:53;9.00;;;2.57;;
9898;SDS011;4988;49.238;6.698;2022-11-04T09:56:09;10.00;;;3.17;;
9898;SDS011;4988;49.238;6.698;2022-11-04T09:58:46;11.27;;;3.27;;
9898;SDS011;4988;49.238;6.698;2022-11-04T10:01:32;10.47;;;3.97;;
9898;SDS011;4988;49.238;6.698;2022-11-04T10:11:48;10.77;;;3.40;;
9898;SDS011;4988;49.238;6.698;2022-11-04T10:14:35;13.23;;;3.37;;
9898;SDS011;4988;49.238;6.698;2022-11-04T10:25:53;15.47;;;3.13;;
9898;SDS011;4988;49.238;6.698;2022-11-04T10:28:41;12.60;;;3.13;;
9898;SDS011;4988;49.238;6.698;2022-11-04T10:31:18;11.53;;;3.03;;
9898;SDS011;4988;49.238;6.698;2022-11-04T10:33:51;11.63;;;2.67;;
9898;SDS011;4988;49.238;6.698;2022-11-04T10:36:20;8.67;;;2.73;;
9898;SDS011;4988;49.238;6.698;2022-11-04T10:38:49;8.47;;;2.73;;
9898;SDS011;4988;49.238;6.698;2022-11-04T10:43:48;5.70;;;2.60;;
9898;SDS011;4988;49.238;6.698;2022-11-04T10:48:56;9.47;;;3.13;;
9898;SDS011;4988;49.238;6.698;2022-11-04T10:51:29;6.43;;;3.23;;
9898;SDS011;4988;49.238;6.698;2022-11-04T10:53:56;7.83;;;3.40;;
9898;SDS011;4988;49.238;6.698;2022-11-04T10:56:34;7.63;;;3.03;;
9898;SDS011;4988;49.238;6.698;2022-11-04T10:59:16;7.57;;;3.20;;
9898;SDS011;4988;49.238;6.698;2022-11-04T11:01:49;12.70;;;3.83;;
9898;SDS011;4988;49.238;6.698;2022-11-04T11:04:23;11.80;;;3.93;;
9898;SDS011;4988;49.238;6.698;2022-11-04T11:07:34;8.37;;;3.33;;
9898;SDS011;4988;49.238;6.698;2022-11-04T11:10:00;8.53;;;4.27;;
9898;SDS011;4988;49.238;6.698;2022-11-04T11:12:26;12.87;;;5.03;;
9898;SDS011;4988;49.238;6.698;2022-11-04T11:15:05;7.10;;;3.83;;
9898;SDS011;4988;49.238;6.698;2022-11-04T11:20:30;6.90;;;3.23;;
9898;SDS011;4988;49.238;6.698;2022-11-04T11:22:57;11.10;;;3.27;;
9898;SDS011;4988;49.238;6.698;2022-11-04T11:25:28;8.83;;;4.03;;
9898;SDS011;4988;49.238;6.698;2022-11-04T11:33:29;5.43;;;3.30;;
9898;SDS011;4988;49.238;6.698;2022-11-04T11:38:26;7.20;;;2.90;;
9898;SDS011;4988;49.238;6.698;2022-11-04T11:43:43;7.50;;;3.80;;
9898;SDS011;4988;49.238;6.698;2022-11-04T11:46:19;13.03;;;4.87;;
9898;SDS011;4988;49.238;6.698;2022-11-04T11:48:50;9.10;;;4.00;;
9898;SDS011;4988;49.238;6.698;2022-11-04T11:51:24;8.57;;;4.23;;
9898;SDS011;4988;49.238;6.698;2022-11-04T11:56:41;9.77;;;4.40;;
9898;SDS011;4988;49.238;6.698;2022-11-04T12:04:37;7.50;;;3.30;;
9898;SDS011;4988;49.238;6.698;2022-11-04T12:07:12;7.80;;;3.20;;
9898;SDS011;4988;49.238;6.698;2022-11-04T12:09:45;7.00;;;3.77;;
9898;SDS011;4988;49.238;6.698;2022-11-04T12:45:15;4.73;;;2.97;;
9898;SDS011;4988;49.238;6.698;2022-11-04T12:47:49;4.03;;;2.73;;
9898;SDS011;4988;49.238;6.698;2022-11-04T13:01:04;5.83;;;3.07;;
9898;SDS011;4988;49.238;6.698;2022-11-04T13:03:39;6.27;;;2.93;;
9898;SDS011;4988;49.238;6.698;2022-11-04T13:07:09;8.07;;;3.40;;
9898;SDS011;4988;49.238;6.698;2022-11-04T13:09:09;11.27;;;3.47;;
9898;SDS011;4988;49.238;6.698;2022-11-04T13:11:44;6.50;;;3.63;;
9898;SDS011;4988;49.238;6.698;2022-11-04T13:14:20;6.97;;;3.20;;
9898;SDS011;4988;49.238;6.698;2022-11-04T13:16:53;5.10;;;3.60;;
9898;SDS011;4988;49.238;6.698;2022-11-04T13:19:26;10.37;;;3.20;;
9898;SDS011;4988;49.238;6.698;2022-11-04T13:22:21;7.63;;;3.23;;
9898;SDS011;4988;49.238;6.698;2022-11-04T13:27:41;9.87;;;2.93;;
9898;SDS011;4988;49.238;6.698;2022-11-04T13:30:20;7.57;;;3.27;;
9898;SDS011;4988;49.238;6.698;2022-11-04T13:38:19;7.23;;;2.93;;
9898;SDS011;4988;49.238;6.698;2022-11-04T13:43:34;5.33;;;2.20;;
9898;SDS011;4988;49.238;6.698;2022-11-04T13:48:38;6.07;;;2.23;;
9898;SDS011;4988;49.238;6.698;2022-11-04T13:54:22;6.60;;;2.47;;
9898;SDS011;4988;49.238;6.698;2022-11-04T13:59:40;7.07;;;2.30;;
9898;SDS011;4988;49.238;6.698;2022-11-04T14:04:37;3.73;;;2.40;;
9898;SDS011;4988;49.238;6.698;2022-11-04T14:07:07;3.57;;;2.00;;
9898;SDS011;4988;49.238;6.698;2022-11-04T14:14:43;7.50;;;2.70;;
9898;SDS011;4988;49.238;6.698;2022-11-04T14:27:54;5.40;;;3.13;;
9898;SDS011;4988;49.238;6.698;2022-11-04T14:30:33;5.20;;;2.60;;
9898;SDS011;4988;49.238;6.698;2022-11-04T14:33:00;4.70;;;1.83;;
9898;SDS011;4988;49.238;6.698;2022-11-04T14:35:30;5.93;;;2.10;;
9898;SDS011;4988;49.238;6.698;2022-11-04T14:40:50;6.30;;;2.10;;
9898;SDS011;4988;49.238;6.698;2022-11-04T14:43:35;4.23;;;1.90;;
9898;SDS011;4988;49.238;6.698;2022-11-04T14:46:00;5.47;;;2.07;;
9898;SDS011;4988;49.238;6.698;2022-11-04T14:48:27;3.83;;;2.07;;
9898;SDS011;4988;49.238;6.698;2022-11-04T14:50:54;5.10;;;2.30;;
9898;SDS011;4988;49.238;6.698;2022-11-04T14:53:31;5.07;;;2.00;;
9898;SDS011;4988;49.238;6.698;2022-11-04T14:58:50;4.30;;;1.90;;
9898;SDS011;4988;49.238;6.698;2022-11-04T15:01:19;14.53;;;5.43;;
9898;SDS011;4988;49.238;6.698;2022-11-04T15:03:45;7.03;;;3.03;;
9898;SDS011;4988;49.238;6.698;2022-11-04T15:06:11;6.37;;;2.43;;
9898;SDS011;4988;49.238;6.698;2022-11-04T15:08:42;9.30;;;4.47;;
9898;SDS011;4988;49.238;6.698;2022-11-04T15:13:38;10.20;;;3.70;;
9898;SDS011;4988;49.238;6.698;2022-11-04T15:16:09;3.53;;;2.20;;
9898;SDS011;4988;49.238;6.698;2022-11-04T15:18:40;6.30;;;3.27;;
9898;SDS011;4988;49.238;6.698;2022-11-04T15:21:06;9.80;;;5.13;;
9898;SDS011;4988;49.238;6.698;2022-11-04T15:26:13;11.17;;;4.90;;
9898;SDS011;4988;49.238;6.698;2022-11-04T15:28:45;5.63;;;3.70;;
9898;SDS011;4988;49.238;6.698;2022-11-04T15:31:14;9.80;;;4.47;;
9898;SDS011;4988;49.238;6.698;2022-11-04T15:34:00;6.93;;;3.73;;
9898;SDS011;4988;49.238;6.698;2022-11-04T15:36:30;18.73;;;8.97;;
9898;SDS011;4988;49.238;6.698;2022-11-04T15:39:01;21.97;;;9.00;;
9898;SDS011;4988;49.238;6.698;2022-11-04T15:41:32;6.93;;;3.80;;
9898;SDS011;4988;49.238;6.698;2022-11-04T15:44:21;5.23;;;2.60;;
9898;SDS011;4988;49.238;6.698;2022-11-04T15:46:57;4.47;;;2.00;;
9898;SDS011;4988;49.238;6.698;2022-11-04T15:49:31;6.57;;;2.60;;
9898;SDS011;4988;49.238;6.698;2022-11-04T15:52:05;5.60;;;2.30;;
9898;SDS011;4988;49.238;6.698;2022-11-04T15:54:37;6.13;;;2.83;;
9898;SDS011;4988;49.238;6.698;2022-11-04T15:59:44;8.33;;;5.13;;
9898;SDS011;4988;49.238;6.698;2022-11-04T16:02:25;9.57;;;4.60;;
9898;SDS011;4988;49.238;6.698;2022-11-04T16:07:37;10.23;;;6.50;;
9898;SDS011;4988;49.238;6.698;2022-11-04T16:10:23;13.30;;;7.20;;
9898;SDS011;4988;49.238;6.698;2022-11-04T16:13:01;11.53;;;5.13;;
9898;SDS011;4988;49.238;6.698;2022-11-04T16:18:35;7.17;;;3.40;;
9898;SDS011;4988;49.238;6.698;2022-11-04T16:21:06;5.47;;;2.87;;
9898;SDS011;4988;49.238;6.698;2022-11-04T16:23:38;7.13;;;2.80;;
9898;SDS011;4988;49.238;6.698;2022-11-04T16:26:10;6.90;;;3.07;;
9898;SDS011;4988;49.238;6.698;2022-11-04T16:28:36;7.40;;;2.70;;
9898;SDS011;4988;49.238;6.698;2022-11-04T16:31:05;9.37;;;2.43;;
9898;SDS011;4988;49.238;6.698;2022-11-04T16:33:51;6.00;;;2.90;;
9898;SDS011;4988;49.238;6.698;2022-11-04T16:36:16;6.57;;;3.23;;
9898;SDS011;4988;49.238;6.698;2022-11-04T16:38:58;7.00;;;3.70;;
9898;SDS011;4988;49.238;6.698;2022-11-04T16:41:28;7.30;;;3.77;;
9898;SDS011;4988;49.238;6.698;2022-11-04T16:43:56;6.43;;;3.00;;
9898;SDS011;4988;49.238;6.698;2022-11-04T16:46:21;7.33;;;3.47;;
9898;SDS011;4988;49.238;6.698;2022-11-04T16:48:47;7.57;;;3.57;;
9898;SDS011;4988;49.238;6.698;2022-11-04T16:51:17;8.10;;;4.43;;
9898;SDS011;4988;49.238;6.698;2022-11-04T16:53:47;9.43;;;4.60;;
9898;SDS011;4988;49.238;6.698;2022-11-04T16:56:16;7.87;;;3.60;;
9898;SDS011;4988;49.238;6.698;2022-11-04T16:58:43;9.37;;;4.40;;
9898;SDS011;4988;49.238;6.698;2022-11-04T17:01:11;7.50;;;3.83;;
9898;SDS011;4988;49.238;6.698;2022-11-04T17:03:37;7.23;;;3.10;;
9898;SDS011;4988;49.238;6.698;2022-11-04T17:06:03;7.83;;;3.57;;
9898;SDS011;4988;49.238;6.698;2022-11-04T17:08:28;11.13;;;5.00;;
9898;SDS011;4988;49.238;6.698;2022-11-04T17:10:53;5.37;;;3.70;;
9898;SDS011;4988;49.238;6.698;2022-11-04T17:13:19;8.40;;;3.80;;
9898;SDS011;4988;49.238;6.698;2022-11-04T17:15:44;6.43;;;3.10;;
9898;SDS011;4988;49.238;6.698;2022-11-04T17:18:13;5.00;;;3.00;;
9898;SDS011;4988;49.238;6.698;2022-11-04T17:20:43;5.17;;;3.40;;
9898;SDS011;4988;49.238;6.698;2022-11-04T17:23:11;11.47;;;7.00;;
9898;SDS011;4988;49.238;6.698;2022-11-04T17:25:38;11.20;;;4.10;;
9898;SDS011;4988;49.238;6.698;2022-11-04T17:28:04;7.93;;;3.60;;
9898;SDS011;4988;49.238;6.698;2022-11-04T17:30:29;6.73;;;3.80;;
9898;SDS011;4988;49.238;6.698;2022-11-04T17:32:55;13.83;;;5.97;;
9898;SDS011;4988;49.238;6.698;2022-11-04T17:35:21;14.53;;;7.40;;
9898;SDS011;4988;49.238;6.698;2022-11-04T17:37:49;19.27;;;7.90;;
9898;SDS011;4988;49.238;6.698;2022-11-04T17:40:16;19.53;;;10.10;;
9898;SDS011;4988;49.238;6.698;2022-11-04T17:42:42;9.27;;;5.43;;
9898;SDS011;4988;49.238;6.698;2022-11-04T17:45:26;6.87;;;3.00;;
9898;SDS011;4988;49.238;6.698;2022-11-04T17:47:52;8.27;;;3.70;;
9898;SDS011;4988;49.238;6.698;2022-11-04T17:50:17;8.83;;;3.70;;
9898;SDS011;4988;49.238;6.698;2022-11-04T17:52:42;7.17;;;3.80;;
9898;SDS011;4988;49.238;6.698;2022-11-04T17:55:09;12.17;;;5.73;;
9898;SDS011;4988;49.238;6.698;2022-11-04T17:57:35;19.37;;;7.90;;
9898;SDS011;4988;49.238;6.698;2022-11-04T18:00:00;10.67;;;6.00;;
9898;SDS011;4988;49.238;6.698;2022-11-04T18:02:29;15.47;;;7.40;;
9898;SDS011;4988;49.238;6.698;2022-11-04T18:04:54;20.93;;;8.20;;
9898;SDS011;4988;49.238;6.698;2022-11-04T18:07:21;63.47;;;16.67;;
9898;SDS011;4988;49.238;6.698;2022-11-04T18:09:47;29.77;;;9.47;;
9898;SDS011;4988;49.238;6.698;2022-11-04T18:12:13;17.87;;;6.67;;
9898;SDS011;4988;49.238;6.698;2022-11-04T18:14:57;16.67;;;6.83;;
9898;SDS011;4988;49.238;6.698;2022-11-04T18:17:23;13.03;;;6.60;;
9898;SDS011;4988;49.238;6.698;2022-11-04T18:19:51;19.77;;;9.30;;
9898;SDS011;4988;49.238;6.698;2022-11-04T18:22:18;9.30;;;5.13;;
9898;SDS011;4988;49.238;6.698;2022-11-04T18:24:47;14.47;;;5.73;;
9898;SDS011;4988;49.238;6.698;2022-11-04T18:27:14;12.33;;;6.17;;
9898;SDS011;4988;49.238;6.698;2022-11-04T18:29:39;14.83;;;6.90;;
9898;SDS011;4988;49.238;6.698;2022-11-04T18:32:04;17.07;;;6.80;;
9898;SDS011;4988;49.238;6.698;2022-11-04T18:34:30;9.73;;;5.03;;
9898;SDS011;4988;49.238;6.698;2022-11-04T18:36:56;11.30;;;5.00;;
9898;SDS011;4988;49.238;6.698;2022-11-04T18:39:22;16.43;;;9.47;;
9898;SDS011;4988;49.238;6.698;2022-11-04T18:41:47;9.57;;;5.00;;
9898;SDS011;4988;49.238;6.698;2022-11-04T18:44:20;8.77;;;4.83;;